Have a Safe July 4th! 

Flight Track Log - Related Links

Times and Time Zones

All times are in EST time to prevent confusion due to time zone crossing. See the N449ND flight status page for this flight to view local times or setup timezone preferences in your user account.

Time Position Orientation Groundspeed Altitude Reporting Facility
EST Latitude Longitude Course Direction KTS MPH feet Rate Location/Type
Sat 10:18:43 PM 27.6147 -80.4542 237° Southwest 100 115 2,600  Level Miami Center
Sat 10:19:42 PM 27.6017 -80.4772 237° Southwest 95 109 3,000 252 Climbing Miami Center
Sat 10:20:42 PM 27.5886 -80.5025 240° Southwest 95 109 3,100 250 Climbing Miami Center
Sat 10:21:42 PM 27.5775 -80.5258 242° Southwest 95 109 3,500 344 Climbing Miami Center
Sat 10:22:44 PM 27.5831 -80.5539 283° West 83 96 3,800 150 Climbing Miami Center
Sat 10:23:42 PM 27.5908 -80.5800 289° West 88 101 3,800  Level Miami Center
Sat 10:24:43 PM 27.6092 -80.5969 321° Northwest 93 107 3,800  Level Miami Center
Sat 10:25:42 PM 27.6317 -80.6142 326° Northwest 93 107 3,800  Level Miami Center
Sat 10:26:43 PM 27.6608 -80.6106 North 86 99 3,800  Level Miami Center
Sat 10:27:43 PM 27.6836 -80.6253 330° Northwest 86 99 3,800 -200 Level Miami Center
Sat 10:28:43 PM 27.7086 -80.6261 358° North 91 105 3,400 -407 Descending Miami Center
Sat 10:29:41 PM 27.7114 -80.6003 83° East 68 78 3,000 -450 Descending Miami Center
Sat 10:30:43 PM 27.7078 -80.5722 98° East 83 96 2,500 250 Descending Miami Center
Sat 10:31:41 PM 27.6961 -80.5436 115° Southeast 94 108 3,500 -595 Climbing Miami Center
Sat 10:32:44 PM 27.6883 -80.5153 107° East 94 108 1,300 -1,091 Descending Miami Center
Sat 10:33:42 PM 27.6786 -80.4892 113° Southeast 94 108 1,300 -254 Level Miami Center
Sat 10:34:42 PM 27.6708 -80.4656 110° East 94 108 800 -446 Descending Miami Center
Sat 10:35:43 PM 27.6611 -80.4369 111° Southeast 94 108 400 1,339 Descending Miami Center
Sat 10:36:43 PM 27.6514 -80.4108 113° Southeast 94 108 3,500 1,576 Climbing Miami Center
Sat 10:37:41 PM 27.6328 -80.4056 166° South 79 91 3,500  Level Miami Center

Login

Don't have an account? Register now (free) for customized features, flight alerts, and more!